Berlin, South Africa
Current Conditions -  °F | °C
As of 9:00 PM on Friday 24 Oct 2014 (Local Time) from FAEL Reporting Station
Haze Haze  
Wind Chill: 64°   Ceiling: 200
Heat Index: 64°   Visibility: 4mi
Dew Point: 64°   Wind: 6mph
Humidity: 100%   Direction: 220°SW
Pressure: 30.09"   Gusts: NA
Location:  32.88°S, 27.58°E
Report Text: FAEL 241900Z 22005KT 6000 BR BKN002 BKN017 18/18 Q1019
Loading
Personal Weather Stations






























Interactive Weather Map
Tropical Storm Tracking
New forecast layout! Learn more

10-Day Weather Forecast

Advertisements
Track Severe Weather on mobile